createdAt,value
2023-02-11T00:00:30.111Z,247.5
2023-02-11T00:05:30.104Z,235
2023-02-11T00:10:30.110Z,227.5
2023-02-11T00:15:30.107Z,220
2023-02-11T00:20:30.114Z,222.5
2023-02-11T00:25:30.109Z,227.5
2023-02-11T00:30:30.148Z,227.5
2023-02-11T00:35:30.113Z,220
2023-02-11T00:40:30.104Z,220
2023-02-11T00:45:30.100Z,220
2023-02-11T00:50:30.105Z,215
2023-02-11T00:55:30.122Z,205
2023-02-11T01:00:30.090Z,200
2023-02-11T01:05:30.160Z,197.5
2023-02-11T01:10:30.113Z,195
2023-02-11T01:15:30.138Z,202.5
2023-02-11T01:20:30.115Z,207.5
2023-02-11T01:25:30.111Z,200
2023-02-11T01:30:30.100Z,200
2023-02-11T01:35:30.112Z,235
2023-02-11T01:40:30.109Z,235
2023-02-11T01:45:30.106Z,230
2023-02-11T01:50:30.122Z,235
2023-02-11T01:55:30.110Z,225
2023-02-11T02:00:30.104Z,230
2023-02-11T02:05:30.118Z,232.5
2023-02-11T02:10:30.113Z,107.5
2023-02-11T02:15:30.119Z,162.5
2023-02-11T02:20:30.095Z,210
2023-02-11T02:25:30.106Z,212.5
2023-02-11T02:30:30.135Z,220
2023-02-11T02:35:30.103Z,202.5
2023-02-11T02:40:30.097Z,187.5
2023-02-11T02:45:30.108Z,172.5
2023-02-11T02:50:30.178Z,237.5
2023-02-11T02:55:30.114Z,245
2023-02-11T03:00:30.136Z,232.5
2023-02-11T03:05:30.112Z,232.5
2023-02-11T03:10:30.114Z,250
2023-02-11T03:15:30.111Z,250
2023-02-11T03:20:30.112Z,237.5
2023-02-11T03:25:30.126Z,232.5
2023-02-11T03:30:30.110Z,227.5
2023-02-11T03:35:30.126Z,245
2023-02-11T03:40:30.103Z,265
2023-02-11T03:45:30.166Z,267.5
2023-02-11T03:50:30.116Z,245
2023-02-11T03:55:30.113Z,237.5
2023-02-11T04:00:30.112Z,230
2023-02-11T04:05:30.110Z,242.5
2023-02-11T04:10:30.115Z,242.5
2023-02-11T04:15:30.092Z,227.5
2023-02-11T04:20:30.121Z,242.5
2023-02-11T04:25:30.119Z,227.5
2023-02-11T04:30:30.103Z,232.5
2023-02-11T04:35:30.108Z,235
2023-02-11T04:40:30.098Z,242.5
2023-02-11T04:45:30.111Z,257.5
2023-02-11T04:50:30.109Z,257.5
2023-02-11T04:55:30.103Z,235
2023-02-11T05:00:30.101Z,247.5
2023-02-11T05:05:30.108Z,240
2023-02-11T05:10:30.117Z,250
2023-02-11T05:15:30.112Z,235
2023-02-11T05:20:30.114Z,255
2023-02-11T05:25:30.122Z,265
2023-02-11T05:30:30.195Z,270
2023-02-11T05:35:30.129Z,267.5
2023-02-11T05:40:30.123Z,265
2023-02-11T05:45:30.106Z,245
2023-02-11T05:50:30.119Z,260
2023-02-11T05:55:30.124Z,262.5
2023-02-11T06:00:30.101Z,262.5
2023-02-11T06:05:30.112Z,262.5
2023-02-11T06:10:30.109Z,257.5
2023-02-11T06:15:30.122Z,257.5
2023-02-11T06:20:30.101Z,265
2023-02-11T06:25:30.111Z,267.5
2023-02-11T06:30:30.118Z,247.5
2023-02-11T06:35:30.116Z,262.5
2023-02-11T06:40:30.110Z,252.5
2023-02-11T06:45:30.117Z,255
2023-02-11T06:50:30.113Z,235
2023-02-11T06:55:30.122Z,250
2023-02-11T07:00:30.102Z,255
2023-02-11T07:05:30.119Z,267.5
2023-02-11T07:10:30.172Z,247.5
2023-02-11T07:15:30.212Z,242.5
2023-02-11T07:20:30.111Z,237.5
2023-02-11T07:25:30.109Z,255
2023-02-11T07:30:30.118Z,245
2023-02-11T07:35:30.115Z,240
2023-02-11T07:40:30.117Z,247.5
2023-02-11T07:45:30.114Z,255
2023-02-11T07:50:30.106Z,262.5
2023-02-11T07:55:30.101Z,240
2023-02-11T08:00:30.113Z,240
2023-02-11T08:05:30.115Z,235
2023-02-11T08:10:30.101Z,237.5
2023-02-11T08:15:30.104Z,230
2023-02-11T08:20:30.113Z,225
2023-02-11T08:25:30.104Z,220
2023-02-11T08:30:30.109Z,215
2023-02-11T08:35:30.111Z,215
2023-02-11T08:40:30.103Z,215
2023-02-11T08:45:30.198Z,220
2023-02-11T08:55:30.110Z,235
2023-02-11T09:00:30.110Z,240
2023-02-11T09:05:30.102Z,230
2023-02-11T09:10:30.104Z,227.5
2023-02-11T09:15:30.122Z,222.5
2023-02-11T09:20:30.118Z,222.5
2023-02-11T09:25:30.123Z,227.5
2023-02-11T09:30:30.257Z,235
2023-02-11T09:35:30.110Z,237.5
2023-02-11T09:40:30.121Z,232.5
2023-02-11T09:45:30.138Z,240
2023-02-11T09:50:30.150Z,242.5
2023-02-11T09:55:30.134Z,245
2023-02-11T10:00:30.130Z,260
2023-02-11T10:05:30.141Z,260
2023-02-11T10:10:30.122Z,260
2023-02-11T10:15:30.328Z,295
2023-02-11T10:20:30.209Z,280
2023-02-11T10:25:30.125Z,270
2023-02-11T10:30:30.184Z,262.5
2023-02-11T10:35:30.125Z,272.5
2023-02-11T10:40:30.126Z,282.5
2023-02-11T10:45:30.123Z,282.5
2023-02-11T10:50:30.127Z,285
2023-02-11T10:55:30.122Z,295
2023-02-11T11:00:30.110Z,262.5
2023-02-11T11:05:30.104Z,280
2023-02-11T11:10:30.125Z,272.5
2023-02-11T11:15:30.118Z,280
2023-02-11T11:20:30.118Z,262.5
2023-02-11T11:25:30.107Z,262.5
2023-02-11T11:30:30.177Z,255
2023-02-11T11:35:30.128Z,255
2023-02-11T11:40:30.122Z,262.5
2023-02-11T11:45:30.106Z,260
2023-02-11T11:50:30.106Z,262.5
2023-02-11T11:55:30.113Z,262.5
2023-02-11T12:00:30.117Z,265
2023-02-11T12:05:30.110Z,250
2023-02-11T12:10:30.111Z,262.5
2023-02-11T12:15:30.111Z,265
2023-02-11T12:20:30.115Z,255
2023-02-11T12:25:30.122Z,255
2023-02-11T12:30:30.159Z,250
2023-02-11T12:35:30.123Z,270
2023-02-11T12:40:30.109Z,270
2023-02-11T12:45:30.151Z,260
2023-02-11T12:50:30.118Z,257.5
2023-02-11T12:55:30.121Z,252.5
2023-02-11T13:00:30.135Z,262.5
2023-02-11T13:05:30.111Z,255
2023-02-11T13:10:30.129Z,252.5
2023-02-11T13:15:30.134Z,270
2023-02-11T13:20:30.122Z,265
2023-02-11T13:25:30.129Z,255
2023-02-11T13:30:30.200Z,260
2023-02-11T13:35:30.109Z,262.5
2023-02-11T13:40:30.133Z,265
2023-02-11T13:45:30.107Z,257.5
2023-02-11T13:50:30.106Z,257.5
2023-02-11T13:55:30.111Z,257.5
2023-02-11T14:00:30.111Z,255
2023-02-11T14:05:30.122Z,260
2023-02-11T14:10:30.110Z,257.5
2023-02-11T14:15:30.121Z,262.5
2023-02-11T14:20:30.113Z,262.5
2023-02-11T14:25:30.119Z,275
2023-02-11T14:30:30.141Z,270
2023-02-11T14:35:30.126Z,262.5
2023-02-11T14:40:30.112Z,265
2023-02-11T14:45:30.108Z,275
2023-02-11T14:50:30.098Z,260
2023-02-11T14:55:30.118Z,252.5
2023-02-11T15:00:30.227Z,270
2023-02-11T15:05:30.125Z,267.5
2023-02-11T15:10:30.116Z,262.5
2023-02-11T15:15:30.109Z,257.5
2023-02-11T15:20:30.108Z,260
2023-02-11T15:25:32.360Z,257.5
2023-02-11T15:30:30.127Z,255
2023-02-11T15:35:30.108Z,255
2023-02-11T15:40:30.128Z,255
2023-02-11T15:45:30.110Z,270
2023-02-11T15:50:30.111Z,257.5
2023-02-11T15:55:30.119Z,265
2023-02-11T16:00:30.121Z,270
2023-02-11T16:05:30.111Z,257.5
2023-02-11T16:10:30.126Z,247.5
2023-02-11T16:15:30.128Z,255
2023-02-11T16:20:30.113Z,267.5
2023-02-11T16:25:30.119Z,265
2023-02-11T16:30:30.127Z,257.5
2023-02-11T16:35:30.109Z,240
2023-02-11T16:40:30.122Z,257.5
2023-02-11T16:45:30.114Z,270
2023-02-11T16:50:30.147Z,250
2023-02-11T16:55:30.115Z,265
2023-02-11T17:00:30.162Z,270
2023-02-11T17:05:30.107Z,255
2023-02-11T17:10:30.101Z,245
2023-02-11T17:15:30.103Z,232.5
2023-02-11T17:20:30.117Z,225
2023-02-11T17:25:30.103Z,230
2023-02-11T17:30:30.112Z,240
2023-02-11T17:35:30.095Z,235
2023-02-11T17:40:30.106Z,245
2023-02-11T17:45:30.132Z,245
2023-02-11T17:50:30.109Z,240
2023-02-11T17:55:30.115Z,270
2023-02-11T18:00:30.100Z,272.5
2023-02-11T18:05:30.106Z,262.5
2023-02-11T18:10:30.110Z,277.5
2023-02-11T18:15:30.117Z,260
2023-02-11T18:20:30.096Z,285
2023-02-11T18:25:30.108Z,275
2023-02-11T18:30:30.133Z,270
2023-02-11T18:35:30.112Z,265
2023-02-11T18:40:30.104Z,245
2023-02-11T18:45:30.142Z,255
2023-02-11T18:50:30.117Z,245
2023-02-11T18:55:30.113Z,270
2023-02-11T19:00:30.111Z,250
2023-02-11T19:05:30.114Z,252.5
2023-02-11T19:10:30.099Z,245
2023-02-11T19:15:30.121Z,250
2023-02-11T19:20:30.098Z,250
2023-02-11T19:25:30.110Z,250
2023-02-11T19:30:30.111Z,237.5
2023-02-11T19:35:30.144Z,215
2023-02-11T19:40:30.121Z,225
2023-02-11T19:45:30.109Z,197.5
2023-02-11T19:50:30.125Z,215
2023-02-11T19:55:30.112Z,210
2023-02-11T20:00:30.096Z,237.5
2023-02-11T20:05:30.118Z,240
2023-02-11T20:10:30.111Z,262.5
2023-02-11T20:15:30.119Z,277.5
2023-02-11T20:20:30.109Z,297.5
2023-02-11T20:25:30.114Z,290
2023-02-11T20:30:30.108Z,265
2023-02-11T20:35:30.104Z,257.5
2023-02-11T20:40:30.099Z,257.5
2023-02-11T20:45:30.100Z,267.5
2023-02-11T20:50:30.114Z,320
2023-02-11T20:55:30.124Z,315
2023-02-11T21:00:30.112Z,315
2023-02-11T21:05:30.128Z,320
2023-02-11T21:10:30.108Z,302.5
2023-02-11T21:15:30.125Z,315
2023-02-11T21:20:30.132Z,332.5
2023-02-11T21:25:30.118Z,317.5
2023-02-11T21:30:30.110Z,302.5
2023-02-11T21:35:30.118Z,297.5
2023-02-11T21:40:30.114Z,295
2023-02-11T21:45:32.118Z,357.5
2023-02-11T21:50:30.111Z,190
2023-02-11T21:55:30.124Z,235
2023-02-11T22:00:30.124Z,290
2023-02-11T22:05:30.112Z,320
2023-02-11T22:10:30.125Z,320
2023-02-11T22:15:30.129Z,322.5
2023-02-11T22:20:30.128Z,320
2023-02-11T22:25:30.121Z,335
2023-02-11T22:30:30.121Z,332.5
2023-02-11T22:35:30.104Z,215
2023-02-11T22:40:30.103Z,237.5
2023-02-11T22:45:30.161Z,257.5
2023-02-11T22:50:30.109Z,287.5
2023-02-11T22:55:30.110Z,287.5
2023-02-11T23:00:30.110Z,220
2023-02-11T23:05:30.110Z,250
2023-02-11T23:10:30.111Z,230
2023-02-11T23:15:30.110Z,237.5
2023-02-11T23:20:30.110Z,297.5
2023-02-11T23:25:30.105Z,290
2023-02-11T23:30:30.099Z,327.5
2023-02-11T23:35:30.125Z,352.5
2023-02-11T23:40:30.097Z,107.5
2023-02-11T23:45:30.109Z,195
2023-02-11T23:50:30.110Z,170
2023-02-11T23:55:30.129Z,135
